sensor_id;sensor_type;location;lat;lon;timestamp;P1;durP1;ratioP1;P2;durP2;ratioP2
10661;SDS011;5379;51.034;7.006;2024-03-08T00:01:45;7.13;;;6.23;;
10661;SDS011;5379;51.034;7.006;2024-03-08T00:04:12;8.07;;;7.33;;
10661;SDS011;5379;51.034;7.006;2024-03-08T00:06:40;6.37;;;5.87;;
10661;SDS011;5379;51.034;7.006;2024-03-08T00:09:10;7.20;;;6.47;;
10661;SDS011;5379;51.034;7.006;2024-03-08T00:11:37;6.90;;;6.27;;
10661;SDS011;5379;51.034;7.006;2024-03-08T00:14:03;7.33;;;6.73;;
10661;SDS011;5379;51.034;7.006;2024-03-08T00:16:31;7.87;;;6.93;;
10661;SDS011;5379;51.034;7.006;2024-03-08T00:18:58;10.13;;;7.67;;
10661;SDS011;5379;51.034;7.006;2024-03-08T00:21:25;9.00;;;6.73;;
10661;SDS011;5379;51.034;7.006;2024-03-08T00:23:53;7.80;;;7.10;;
10661;SDS011;5379;51.034;7.006;2024-03-08T00:26:21;8.03;;;7.23;;
10661;SDS011;5379;51.034;7.006;2024-03-08T00:28:48;7.07;;;6.47;;
10661;SDS011;5379;51.034;7.006;2024-03-08T00:31:15;8.00;;;7.20;;
10661;SDS011;5379;51.034;7.006;2024-03-08T00:33:42;11.27;;;7.07;;
10661;SDS011;5379;51.034;7.006;2024-03-08T00:36:08;7.40;;;6.67;;
10661;SDS011;5379;51.034;7.006;2024-03-08T00:38:35;7.97;;;7.17;;
10661;SDS011;5379;51.034;7.006;2024-03-08T00:41:02;12.97;;;7.53;;
10661;SDS011;5379;51.034;7.006;2024-03-08T00:43:31;8.97;;;7.93;;
10661;SDS011;5379;51.034;7.006;2024-03-08T00:45:57;7.17;;;6.40;;
10661;SDS011;5379;51.034;7.006;2024-03-08T00:48:24;11.23;;;7.47;;
10661;SDS011;5379;51.034;7.006;2024-03-08T00:50:51;7.37;;;6.57;;
10661;SDS011;5379;51.034;7.006;2024-03-08T00:53:18;7.37;;;6.10;;
10661;SDS011;5379;51.034;7.006;2024-03-08T00:55:45;8.13;;;6.40;;
10661;SDS011;5379;51.034;7.006;2024-03-08T00:58:12;7.07;;;6.37;;
10661;SDS011;5379;51.034;7.006;2024-03-08T05:31:18;8.57;;;7.40;;
10661;SDS011;5379;51.034;7.006;2024-03-08T05:33:47;11.53;;;8.70;;
10661;SDS011;5379;51.034;7.006;2024-03-08T05:36:14;8.97;;;8.13;;
10661;SDS011;5379;51.034;7.006;2024-03-08T05:38:41;13.03;;;8.37;;
10661;SDS011;5379;51.034;7.006;2024-03-08T05:41:08;8.30;;;7.47;;
10661;SDS011;5379;51.034;7.006;2024-03-08T05:43:35;10.27;;;7.93;;
10661;SDS011;5379;51.034;7.006;2024-03-08T05:46:02;8.70;;;7.90;;
10661;SDS011;5379;51.034;7.006;2024-03-08T05:48:31;13.03;;;9.43;;
10661;SDS011;5379;51.034;7.006;2024-03-08T05:50:58;10.63;;;8.17;;
10661;SDS011;5379;51.034;7.006;2024-03-08T05:53:25;7.30;;;6.70;;
10661;SDS011;5379;51.034;7.006;2024-03-08T05:55:52;11.63;;;9.13;;
10661;SDS011;5379;51.034;7.006;2024-03-08T05:58:19;8.20;;;7.30;;
10661;SDS011;5379;51.034;7.006;2024-03-08T06:00:46;8.03;;;7.33;;
10661;SDS011;5379;51.034;7.006;2024-03-08T06:03:13;10.37;;;8.87;;
10661;SDS011;5379;51.034;7.006;2024-03-08T06:05:42;8.97;;;8.17;;
10661;SDS011;5379;51.034;7.006;2024-03-08T06:08:09;9.50;;;8.60;;
10661;SDS011;5379;51.034;7.006;2024-03-08T06:10:36;7.57;;;6.87;;
10661;SDS011;5379;51.034;7.006;2024-03-08T06:13:04;12.27;;;9.07;;
10661;SDS011;5379;51.034;7.006;2024-03-08T06:15:31;11.27;;;9.27;;
10661;SDS011;5379;51.034;7.006;2024-03-08T06:17:59;10.60;;;8.93;;
10661;SDS011;5379;51.034;7.006;2024-03-08T06:20:27;7.83;;;7.17;;
10661;SDS011;5379;51.034;7.006;2024-03-08T06:22:56;15.57;;;8.90;;
10661;SDS011;5379;51.034;7.006;2024-03-08T06:25:23;8.77;;;7.87;;
10661;SDS011;5379;51.034;7.006;2024-03-08T06:27:50;7.53;;;6.73;;
10661;SDS011;5379;51.034;7.006;2024-03-08T06:30:18;12.07;;;8.50;;
10661;SDS011;5379;51.034;7.006;2024-03-08T06:32:45;15.60;;;10.03;;
10661;SDS011;5379;51.034;7.006;2024-03-08T06:35:12;14.17;;;10.07;;
10661;SDS011;5379;51.034;7.006;2024-03-08T06:37:40;12.90;;;10.20;;
10661;SDS011;5379;51.034;7.006;2024-03-08T06:40:11;16.83;;;8.90;;
10661;SDS011;5379;51.034;7.006;2024-03-08T06:42:39;4.90;;;4.50;;
10661;SDS011;5379;51.034;7.006;2024-03-08T06:45:06;8.43;;;7.73;;
10661;SDS011;5379;51.034;7.006;2024-03-08T06:47:35;8.97;;;8.07;;
10661;SDS011;5379;51.034;7.006;2024-03-08T06:50:02;13.57;;;9.20;;
10661;SDS011;5379;51.034;7.006;2024-03-08T06:52:30;9.20;;;8.27;;
10661;SDS011;5379;51.034;7.006;2024-03-08T06:54:58;6.90;;;6.30;;
10661;SDS011;5379;51.034;7.006;2024-03-08T06:57:28;11.37;;;10.13;;
10661;SDS011;5379;51.034;7.006;2024-03-08T06:59:55;13.73;;;10.30;;
10661;SDS011;5379;51.034;7.006;2024-03-08T07:02:23;7.50;;;6.80;;
10661;SDS011;5379;51.034;7.006;2024-03-08T07:04:50;9.37;;;8.47;;
10661;SDS011;5379;51.034;7.006;2024-03-08T07:07:18;10.03;;;8.47;;
10661;SDS011;5379;51.034;7.006;2024-03-08T07:09:45;6.10;;;5.60;;
10661;SDS011;5379;51.034;7.006;2024-03-08T07:12:14;11.30;;;7.33;;
10661;SDS011;5379;51.034;7.006;2024-03-08T07:14:43;9.77;;;8.83;;
10661;SDS011;5379;51.034;7.006;2024-03-08T07:17:10;16.43;;;9.33;;
10661;SDS011;5379;51.034;7.006;2024-03-08T07:19:37;13.03;;;8.07;;
10661;SDS011;5379;51.034;7.006;2024-03-08T07:22:04;13.50;;;9.83;;
10661;SDS011;5379;51.034;7.006;2024-03-08T07:24:33;10.97;;;8.90;;
10661;SDS011;5379;51.034;7.006;2024-03-08T07:27:15;11.00;;;8.80;;
10661;SDS011;5379;51.034;7.006;2024-03-08T07:29:43;14.13;;;10.13;;
10661;SDS011;5379;51.034;7.006;2024-03-08T07:32:10;11.93;;;8.63;;
10661;SDS011;5379;51.034;7.006;2024-03-08T07:34:45;13.13;;;8.33;;
10661;SDS011;5379;51.034;7.006;2024-03-08T07:37:13;10.60;;;9.10;;
10661;SDS011;5379;51.034;7.006;2024-03-08T07:39:40;9.73;;;8.07;;
10661;SDS011;5379;51.034;7.006;2024-03-08T07:42:08;9.60;;;8.23;;
10661;SDS011;5379;51.034;7.006;2024-03-08T07:44:36;9.70;;;6.53;;
10661;SDS011;5379;51.034;7.006;2024-03-08T07:47:05;6.30;;;5.70;;
10661;SDS011;5379;51.034;7.006;2024-03-08T07:49:34;7.10;;;6.50;;
10661;SDS011;5379;51.034;7.006;2024-03-08T07:52:02;6.23;;;5.63;;
10661;SDS011;5379;51.034;7.006;2024-03-08T07:54:32;5.17;;;4.67;;
10661;SDS011;5379;51.034;7.006;2024-03-08T07:56:59;6.77;;;6.17;;
10661;SDS011;5379;51.034;7.006;2024-03-08T07:59:28;6.30;;;5.77;;
10661;SDS011;5379;51.034;7.006;2024-03-08T08:01:55;7.53;;;6.80;;
10661;SDS011;5379;51.034;7.006;2024-03-08T08:04:23;9.30;;;7.83;;
10661;SDS011;5379;51.034;7.006;2024-03-08T08:06:51;7.23;;;6.57;;
10661;SDS011;5379;51.034;7.006;2024-03-08T08:09:19;5.90;;;5.17;;
10661;SDS011;5379;51.034;7.006;2024-03-08T08:11:53;8.73;;;7.07;;
10661;SDS011;5379;51.034;7.006;2024-03-08T08:14:20;9.77;;;7.07;;
10661;SDS011;5379;51.034;7.006;2024-03-08T08:16:47;8.13;;;7.33;;
10661;SDS011;5379;51.034;7.006;2024-03-08T08:19:17;10.30;;;8.03;;
10661;SDS011;5379;51.034;7.006;2024-03-08T08:21:46;8.33;;;6.70;;
10661;SDS011;5379;51.034;7.006;2024-03-08T08:24:13;6.73;;;5.63;;
10661;SDS011;5379;51.034;7.006;2024-03-08T08:26:40;12.90;;;6.07;;
10661;SDS011;5379;51.034;7.006;2024-03-08T08:29:09;9.77;;;6.40;;
10661;SDS011;5379;51.034;7.006;2024-03-08T08:31:36;7.77;;;6.00;;
10661;SDS011;5379;51.034;7.006;2024-03-08T08:34:03;14.53;;;7.53;;
10661;SDS011;5379;51.034;7.006;2024-03-08T08:36:31;8.83;;;6.20;;
10661;SDS011;5379;51.034;7.006;2024-03-08T08:39:00;11.27;;;7.33;;
10661;SDS011;5379;51.034;7.006;2024-03-08T08:41:28;8.70;;;6.97;;
10661;SDS011;5379;51.034;7.006;2024-03-08T08:43:55;9.87;;;6.97;;
10661;SDS011;5379;51.034;7.006;2024-03-08T08:46:22;8.40;;;6.87;;
10661;SDS011;5379;51.034;7.006;2024-03-08T08:48:49;12.27;;;7.90;;
10661;SDS011;5379;51.034;7.006;2024-03-08T08:51:17;7.50;;;6.83;;
10661;SDS011;5379;51.034;7.006;2024-03-08T08:53:44;8.03;;;6.97;;
10661;SDS011;5379;51.034;7.006;2024-03-08T08:56:14;8.63;;;7.43;;
10661;SDS011;5379;51.034;7.006;2024-03-08T08:58:41;8.67;;;6.87;;
10661;SDS011;5379;51.034;7.006;2024-03-08T09:01:07;8.30;;;6.87;;
10661;SDS011;5379;51.034;7.006;2024-03-08T09:03:35;5.77;;;5.17;;
10661;SDS011;5379;51.034;7.006;2024-03-08T09:06:02;7.17;;;4.90;;
10661;SDS011;5379;51.034;7.006;2024-03-08T09:08:29;5.70;;;4.63;;
10661;SDS011;5379;51.034;7.006;2024-03-08T09:10:56;9.47;;;8.13;;
10661;SDS011;5379;51.034;7.006;2024-03-08T09:13:26;7.50;;;5.17;;
10661;SDS011;5379;51.034;7.006;2024-03-08T09:15:53;8.33;;;5.40;;
10661;SDS011;5379;51.034;7.006;2024-03-08T09:18:20;7.83;;;6.53;;
10661;SDS011;5379;51.034;7.006;2024-03-08T09:20:46;8.57;;;6.67;;
10661;SDS011;5379;51.034;7.006;2024-03-08T09:23:14;5.37;;;4.87;;
10661;SDS011;5379;51.034;7.006;2024-03-08T09:25:42;7.10;;;5.80;;
10661;SDS011;5379;51.034;7.006;2024-03-08T09:28:09;6.53;;;5.83;;
10661;SDS011;5379;51.034;7.006;2024-03-08T09:30:38;6.03;;;5.43;;
10661;SDS011;5379;51.034;7.006;2024-03-08T09:33:05;7.93;;;6.43;;
10661;SDS011;5379;51.034;7.006;2024-03-08T09:35:32;6.97;;;5.63;;
10661;SDS011;5379;51.034;7.006;2024-03-08T09:37:59;7.33;;;5.90;;
10661;SDS011;5379;51.034;7.006;2024-03-08T09:40:26;6.60;;;4.60;;
10661;SDS011;5379;51.034;7.006;2024-03-08T09:42:52;4.60;;;4.30;;
10661;SDS011;5379;51.034;7.006;2024-03-08T09:45:20;5.10;;;4.70;;
10661;SDS011;5379;51.034;7.006;2024-03-08T09:47:50;4.80;;;4.27;;
10661;SDS011;5379;51.034;7.006;2024-03-08T09:50:18;4.00;;;3.77;;
10661;SDS011;5379;51.034;7.006;2024-03-08T09:52:46;5.83;;;5.33;;
10661;SDS011;5379;51.034;7.006;2024-03-08T09:55:14;6.93;;;6.20;;
10661;SDS011;5379;51.034;7.006;2024-03-08T09:57:42;7.17;;;5.17;;
10661;SDS011;5379;51.034;7.006;2024-03-08T10:00:31;3.87;;;3.53;;
10661;SDS011;5379;51.034;7.006;2024-03-08T10:03:01;7.80;;;5.93;;
10661;SDS011;5379;51.034;7.006;2024-03-08T10:05:30;5.07;;;4.67;;
10661;SDS011;5379;51.034;7.006;2024-03-08T10:07:58;5.83;;;5.27;;
10661;SDS011;5379;51.034;7.006;2024-03-08T10:10:25;5.27;;;4.77;;
10661;SDS011;5379;51.034;7.006;2024-03-08T10:12:51;5.00;;;4.60;;
10661;SDS011;5379;51.034;7.006;2024-03-08T10:15:19;6.77;;;5.23;;
10661;SDS011;5379;51.034;7.006;2024-03-08T10:17:46;9.40;;;3.97;;
10661;SDS011;5379;51.034;7.006;2024-03-08T10:20:15;4.40;;;4.03;;
10661;SDS011;5379;51.034;7.006;2024-03-08T10:22:42;6.33;;;4.70;;
10661;SDS011;5379;51.034;7.006;2024-03-08T10:25:10;4.10;;;3.73;;
10661;SDS011;5379;51.034;7.006;2024-03-08T10:27:38;7.93;;;5.53;;
10661;SDS011;5379;51.034;7.006;2024-03-08T10:30:06;5.83;;;5.23;;
10661;SDS011;5379;51.034;7.006;2024-03-08T10:32:37;4.70;;;4.30;;
10661;SDS011;5379;51.034;7.006;2024-03-08T10:35:04;3.90;;;3.60;;
10661;SDS011;5379;51.034;7.006;2024-03-08T10:37:34;4.37;;;4.07;;
10661;SDS011;5379;51.034;7.006;2024-03-08T10:40:09;3.97;;;3.07;;
10661;SDS011;5379;51.034;7.006;2024-03-08T10:42:44;5.73;;;5.20;;
10661;SDS011;5379;51.034;7.006;2024-03-08T10:45:19;7.80;;;5.80;;
10661;SDS011;5379;51.034;7.006;2024-03-08T10:48:02;7.90;;;5.77;;
10661;SDS011;5379;51.034;7.006;2024-03-08T10:50:36;4.17;;;3.83;;
10661;SDS011;5379;51.034;7.006;2024-03-08T10:53:05;3.07;;;2.87;;
10661;SDS011;5379;51.034;7.006;2024-03-08T10:55:33;6.77;;;6.03;;
10661;SDS011;5379;51.034;7.006;2024-03-08T10:58:03;7.10;;;4.87;;
10661;SDS011;5379;51.034;7.006;2024-03-08T11:00:30;6.80;;;4.43;;
10661;SDS011;5379;51.034;7.006;2024-03-08T11:02:57;5.00;;;4.53;;
10661;SDS011;5379;51.034;7.006;2024-03-08T11:05:31;4.37;;;3.97;;
10661;SDS011;5379;51.034;7.006;2024-03-08T11:08:03;5.03;;;4.63;;
10661;SDS011;5379;51.034;7.006;2024-03-08T11:10:46;4.37;;;4.07;;
10661;SDS011;5379;51.034;7.006;2024-03-08T11:16:01;3.83;;;3.53;;
10661;SDS011;5379;51.034;7.006;2024-03-08T11:18:31;5.97;;;3.40;;
10661;SDS011;5379;51.034;7.006;2024-03-08T11:20:59;4.30;;;3.20;;
10661;SDS011;5379;51.034;7.006;2024-03-08T11:23:31;4.17;;;3.77;;
10661;SDS011;5379;51.034;7.006;2024-03-08T11:25:58;4.70;;;4.30;;
10661;SDS011;5379;51.034;7.006;2024-03-08T11:28:25;7.33;;;5.03;;
10661;SDS011;5379;51.034;7.006;2024-03-08T11:33:51;5.30;;;4.80;;
10661;SDS011;5379;51.034;7.006;2024-03-08T11:36:20;4.90;;;4.00;;
10661;SDS011;5379;51.034;7.006;2024-03-08T11:38:51;7.77;;;4.90;;
10661;SDS011;5379;51.034;7.006;2024-03-08T11:41:20;4.67;;;4.10;;
10661;SDS011;5379;51.034;7.006;2024-03-08T11:43:49;4.97;;;4.47;;
10661;SDS011;5379;51.034;7.006;2024-03-08T11:46:16;4.80;;;3.93;;
10661;SDS011;5379;51.034;7.006;2024-03-08T11:48:44;5.87;;;5.30;;
10661;SDS011;5379;51.034;7.006;2024-03-08T11:51:13;4.93;;;4.47;;
10661;SDS011;5379;51.034;7.006;2024-03-08T11:53:40;8.33;;;4.77;;
10661;SDS011;5379;51.034;7.006;2024-03-08T11:56:09;4.70;;;4.20;;
10661;SDS011;5379;51.034;7.006;2024-03-08T11:58:37;3.43;;;3.13;;
10661;SDS011;5379;51.034;7.006;2024-03-08T12:01:05;5.93;;;3.93;;
10661;SDS011;5379;51.034;7.006;2024-03-08T12:03:34;5.30;;;4.73;;
10661;SDS011;5379;51.034;7.006;2024-03-08T12:06:01;4.03;;;3.73;;
10661;SDS011;5379;51.034;7.006;2024-03-08T12:08:28;4.37;;;3.97;;
10661;SDS011;5379;51.034;7.006;2024-03-08T12:10:57;4.80;;;4.40;;
10661;SDS011;5379;51.034;7.006;2024-03-08T12:13:26;3.97;;;3.60;;
10661;SDS011;5379;51.034;7.006;2024-03-08T12:15:55;5.10;;;4.40;;
10661;SDS011;5379;51.034;7.006;2024-03-08T12:18:24;4.00;;;3.70;;
10661;SDS011;5379;51.034;7.006;2024-03-08T12:20:51;3.00;;;2.80;;
10661;SDS011;5379;51.034;7.006;2024-03-08T12:23:18;3.77;;;3.47;;
10661;SDS011;5379;51.034;7.006;2024-03-08T12:25:45;2.13;;;2.03;;
10661;SDS011;5379;51.034;7.006;2024-03-08T12:28:12;5.90;;;4.70;;
10661;SDS011;5379;51.034;7.006;2024-03-08T12:30:45;3.17;;;2.90;;
10661;SDS011;5379;51.034;7.006;2024-03-08T12:33:13;16.73;;;3.77;;
10661;SDS011;5379;51.034;7.006;2024-03-08T12:35:40;6.20;;;4.10;;
10661;SDS011;5379;51.034;7.006;2024-03-08T12:38:07;3.77;;;3.57;;
10661;SDS011;5379;51.034;7.006;2024-03-08T12:40:35;4.10;;;3.70;;
10661;SDS011;5379;51.034;7.006;2024-03-08T12:43:05;4.20;;;3.90;;
10661;SDS011;5379;51.034;7.006;2024-03-08T12:45:32;3.90;;;3.50;;
10661;SDS011;5379;51.034;7.006;2024-03-08T12:48:01;4.07;;;3.70;;
10661;SDS011;5379;51.034;7.006;2024-03-08T12:50:28;3.70;;;3.43;;
10661;SDS011;5379;51.034;7.006;2024-03-08T12:52:56;3.63;;;3.33;;
10661;SDS011;5379;51.034;7.006;2024-03-08T12:55:22;4.47;;;4.10;;
10661;SDS011;5379;51.034;7.006;2024-03-08T12:57:49;5.50;;;4.70;;
10661;SDS011;5379;51.034;7.006;2024-03-08T13:00:18;3.57;;;3.23;;
10661;SDS011;5379;51.034;7.006;2024-03-08T13:02:45;4.03;;;3.73;;
10661;SDS011;5379;51.034;7.006;2024-03-08T13:05:13;4.03;;;2.90;;
10661;SDS011;5379;51.034;7.006;2024-03-08T13:07:41;4.43;;;3.40;;
10661;SDS011;5379;51.034;7.006;2024-03-08T13:10:11;3.77;;;3.20;;
10661;SDS011;5379;51.034;7.006;2024-03-08T13:12:39;3.77;;;3.27;;
10661;SDS011;5379;51.034;7.006;2024-03-08T13:15:07;2.73;;;2.50;;
10661;SDS011;5379;51.034;7.006;2024-03-08T13:17:36;4.40;;;3.50;;
10661;SDS011;5379;51.034;7.006;2024-03-08T13:20:05;3.27;;;3.00;;
10661;SDS011;5379;51.034;7.006;2024-03-08T13:22:34;3.77;;;3.47;;
10661;SDS011;5379;51.034;7.006;2024-03-08T13:25:02;4.43;;;4.03;;
10661;SDS011;5379;51.034;7.006;2024-03-08T13:27:30;4.00;;;3.37;;
10661;SDS011;5379;51.034;7.006;2024-03-08T13:29:59;2.03;;;1.93;;
10661;SDS011;5379;51.034;7.006;2024-03-08T13:32:30;3.37;;;3.17;;
10661;SDS011;5379;51.034;7.006;2024-03-08T13:34:56;6.33;;;4.00;;
10661;SDS011;5379;51.034;7.006;2024-03-08T13:37:23;6.83;;;4.43;;
10661;SDS011;5379;51.034;7.006;2024-03-08T13:39:51;6.57;;;4.27;;
10661;SDS011;5379;51.034;7.006;2024-03-08T13:42:18;5.57;;;4.17;;
10661;SDS011;5379;51.034;7.006;2024-03-08T13:44:45;6.43;;;4.57;;
10661;SDS011;5379;51.034;7.006;2024-03-08T13:47:12;3.73;;;3.30;;
10661;SDS011;5379;51.034;7.006;2024-03-08T13:49:39;6.77;;;4.63;;
10661;SDS011;5379;51.034;7.006;2024-03-08T13:52:15;5.63;;;4.97;;
10661;SDS011;5379;51.034;7.006;2024-03-08T13:54:44;7.10;;;4.67;;
10661;SDS011;5379;51.034;7.006;2024-03-08T13:57:12;7.10;;;6.40;;
10661;SDS011;5379;51.034;7.006;2024-03-08T13:59:39;6.53;;;5.03;;
10661;SDS011;5379;51.034;7.006;2024-03-08T14:02:06;4.57;;;4.17;;
10661;SDS011;5379;51.034;7.006;2024-03-08T14:04:38;2.93;;;2.73;;
10661;SDS011;5379;51.034;7.006;2024-03-08T14:07:06;5.57;;;4.13;;
10661;SDS011;5379;51.034;7.006;2024-03-08T14:09:33;4.70;;;4.23;;
10661;SDS011;5379;51.034;7.006;2024-03-08T14:12:02;5.07;;;3.63;;
10661;SDS011;5379;51.034;7.006;2024-03-08T14:14:33;7.13;;;4.20;;
10661;SDS011;5379;51.034;7.006;2024-03-08T14:17:00;5.63;;;5.10;;
10661;SDS011;5379;51.034;7.006;2024-03-08T14:19:27;7.37;;;5.73;;
10661;SDS011;5379;51.034;7.006;2024-03-08T14:21:55;7.97;;;4.17;;
10661;SDS011;5379;51.034;7.006;2024-03-08T14:24:24;5.43;;;4.57;;
10661;SDS011;5379;51.034;7.006;2024-03-08T14:26:51;5.00;;;4.50;;
10661;SDS011;5379;51.034;7.006;2024-03-08T14:29:18;4.43;;;4.03;;
10661;SDS011;5379;51.034;7.006;2024-03-08T14:31:46;4.87;;;4.43;;
10661;SDS011;5379;51.034;7.006;2024-03-08T14:34:13;5.17;;;4.67;;
10661;SDS011;5379;51.034;7.006;2024-03-08T14:36:40;4.83;;;4.40;;
10661;SDS011;5379;51.034;7.006;2024-03-08T14:39:06;6.10;;;3.43;;
10661;SDS011;5379;51.034;7.006;2024-03-08T14:41:33;8.77;;;5.23;;
10661;SDS011;5379;51.034;7.006;2024-03-08T14:44:00;4.73;;;4.33;;
10661;SDS011;5379;51.034;7.006;2024-03-08T14:46:26;5.83;;;4.47;;
10661;SDS011;5379;51.034;7.006;2024-03-08T14:48:55;2.70;;;2.47;;
10661;SDS011;5379;51.034;7.006;2024-03-08T14:51:22;5.50;;;3.07;;
10661;SDS011;5379;51.034;7.006;2024-03-08T14:53:51;4.87;;;4.17;;
10661;SDS011;5379;51.034;7.006;2024-03-08T14:56:19;4.43;;;4.03;;
10661;SDS011;5379;51.034;7.006;2024-03-08T14:58:47;8.73;;;4.70;;
10661;SDS011;5379;51.034;7.006;2024-03-08T15:01:16;9.53;;;5.67;;
10661;SDS011;5379;51.034;7.006;2024-03-08T15:03:47;5.67;;;4.57;;
10661;SDS011;5379;51.034;7.006;2024-03-08T15:06:16;4.67;;;4.10;;
10661;SDS011;5379;51.034;7.006;2024-03-08T15:08:45;6.83;;;4.20;;
10661;SDS011;5379;51.034;7.006;2024-03-08T15:11:12;10.03;;;4.93;;
10661;SDS011;5379;51.034;7.006;2024-03-08T15:13:46;5.73;;;4.70;;
10661;SDS011;5379;51.034;7.006;2024-03-08T15:16:16;5.50;;;4.40;;
10661;SDS011;5379;51.034;7.006;2024-03-08T15:18:43;4.63;;;3.93;;
10661;SDS011;5379;51.034;7.006;2024-03-08T15:30:44;10.17;;;4.87;;
10661;SDS011;5379;51.034;7.006;2024-03-08T15:33:16;5.50;;;4.33;;
10661;SDS011;5379;51.034;7.006;2024-03-08T15:35:49;4.43;;;4.13;;
10661;SDS011;5379;51.034;7.006;2024-03-08T15:38:22;4.83;;;3.70;;
10661;SDS011;5379;51.034;7.006;2024-03-08T15:40:49;5.90;;;4.57;;
10661;SDS011;5379;51.034;7.006;2024-03-08T15:43:17;4.30;;;3.80;;
10661;SDS011;5379;51.034;7.006;2024-03-08T16:03:49;4.00;;;3.60;;
10661;SDS011;5379;51.034;7.006;2024-03-08T16:06:16;5.87;;;4.33;;
10661;SDS011;5379;51.034;7.006;2024-03-08T16:08:46;6.40;;;4.67;;
10661;SDS011;5379;51.034;7.006;2024-03-08T16:11:13;4.73;;;4.33;;
10661;SDS011;5379;51.034;7.006;2024-03-08T16:55:42;6.60;;;3.27;;
10661;SDS011;5379;51.034;7.006;2024-03-08T16:58:09;4.00;;;3.70;;
10661;SDS011;5379;51.034;7.006;2024-03-08T17:00:39;4.07;;;3.60;;
10661;SDS011;5379;51.034;7.006;2024-03-08T17:03:07;10.17;;;4.27;;
10661;SDS011;5379;51.034;7.006;2024-03-08T17:05:37;4.37;;;3.80;;
10661;SDS011;5379;51.034;7.006;2024-03-08T17:08:05;4.13;;;3.83;;
10661;SDS011;5379;51.034;7.006;2024-03-08T17:10:35;3.27;;;3.07;;
10661;SDS011;5379;51.034;7.006;2024-03-08T17:13:06;3.60;;;3.30;;
10661;SDS011;5379;51.034;7.006;2024-03-08T17:15:33;5.37;;;4.63;;
10661;SDS011;5379;51.034;7.006;2024-03-08T17:18:00;4.30;;;3.80;;
10661;SDS011;5379;51.034;7.006;2024-03-08T17:20:31;3.83;;;3.43;;
10661;SDS011;5379;51.034;7.006;2024-03-08T17:23:01;3.63;;;3.33;;
10661;SDS011;5379;51.034;7.006;2024-03-08T17:25:30;9.27;;;4.73;;
10661;SDS011;5379;51.034;7.006;2024-03-08T17:27:58;8.70;;;4.97;;
10661;SDS011;5379;51.034;7.006;2024-03-08T17:30:27;4.20;;;3.83;;
10661;SDS011;5379;51.034;7.006;2024-03-08T17:32:55;12.47;;;4.20;;
10661;SDS011;5379;51.034;7.006;2024-03-08T17:35:23;6.83;;;4.47;;
10661;SDS011;5379;51.034;7.006;2024-03-08T17:37:51;10.80;;;4.27;;
10661;SDS011;5379;51.034;7.006;2024-03-08T17:40:21;7.50;;;4.63;;
10661;SDS011;5379;51.034;7.006;2024-03-08T17:42:49;5.70;;;4.60;;
10661;SDS011;5379;51.034;7.006;2024-03-08T17:45:17;5.50;;;5.00;;
10661;SDS011;5379;51.034;7.006;2024-03-08T17:47:47;6.63;;;4.10;;
10661;SDS011;5379;51.034;7.006;2024-03-08T17:50:15;7.37;;;4.03;;
10661;SDS011;5379;51.034;7.006;2024-03-08T17:52:43;5.77;;;5.03;;
10661;SDS011;5379;51.034;7.006;2024-03-08T17:55:10;7.23;;;4.73;;
10661;SDS011;5379;51.034;7.006;2024-03-08T17:57:39;5.70;;;4.17;;
10661;SDS011;5379;51.034;7.006;2024-03-08T18:00:07;5.00;;;4.50;;
10661;SDS011;5379;51.034;7.006;2024-03-08T18:02:42;8.50;;;4.83;;
10661;SDS011;5379;51.034;7.006;2024-03-08T18:05:16;5.77;;;5.20;;
10661;SDS011;5379;51.034;7.006;2024-03-08T18:07:43;5.23;;;4.60;;
10661;SDS011;5379;51.034;7.006;2024-03-08T18:10:10;8.47;;;5.47;;
10661;SDS011;5379;51.034;7.006;2024-03-08T18:12:44;6.90;;;5.07;;
10661;SDS011;5379;51.034;7.006;2024-03-08T18:15:13;7.67;;;5.27;;
10661;SDS011;5379;51.034;7.006;2024-03-08T18:17:45;6.00;;;4.70;;
10661;SDS011;5379;51.034;7.006;2024-03-08T18:20:16;6.87;;;6.17;;
10661;SDS011;5379;51.034;7.006;2024-03-08T18:22:46;6.53;;;5.93;;
10661;SDS011;5379;51.034;7.006;2024-03-08T18:25:13;12.00;;;6.00;;
10661;SDS011;5379;51.034;7.006;2024-03-08T18:27:43;7.60;;;5.83;;
10661;SDS011;5379;51.034;7.006;2024-03-08T18:30:10;6.73;;;5.70;;
10661;SDS011;5379;51.034;7.006;2024-03-08T18:32:40;5.30;;;4.90;;
10661;SDS011;5379;51.034;7.006;2024-03-08T18:35:09;6.77;;;5.83;;
10661;SDS011;5379;51.034;7.006;2024-03-08T18:37:37;6.50;;;5.20;;
10661;SDS011;5379;51.034;7.006;2024-03-08T18:40:05;8.33;;;6.33;;
10661;SDS011;5379;51.034;7.006;2024-03-08T18:42:35;7.60;;;6.63;;
10661;SDS011;5379;51.034;7.006;2024-03-08T18:45:03;7.70;;;6.60;;
10661;SDS011;5379;51.034;7.006;2024-03-08T18:47:34;6.00;;;5.40;;
10661;SDS011;5379;51.034;7.006;2024-03-08T18:50:01;6.93;;;5.80;;
10661;SDS011;5379;51.034;7.006;2024-03-08T18:52:30;7.23;;;6.23;;
10661;SDS011;5379;51.034;7.006;2024-03-08T18:54:57;7.67;;;5.83;;
10661;SDS011;5379;51.034;7.006;2024-03-08T18:57:23;8.37;;;6.53;;
10661;SDS011;5379;51.034;7.006;2024-03-08T18:59:52;6.43;;;5.40;;
10661;SDS011;5379;51.034;7.006;2024-03-08T19:02:19;8.83;;;5.40;;
10661;SDS011;5379;51.034;7.006;2024-03-08T19:04:47;8.53;;;6.27;;
10661;SDS011;5379;51.034;7.006;2024-03-08T19:07:13;7.10;;;5.77;;
10661;SDS011;5379;51.034;7.006;2024-03-08T19:09:41;5.20;;;4.77;;
10661;SDS011;5379;51.034;7.006;2024-03-08T19:12:11;8.57;;;5.93;;
10661;SDS011;5379;51.034;7.006;2024-03-08T19:14:38;7.10;;;5.80;;
10661;SDS011;5379;51.034;7.006;2024-03-08T19:17:05;7.23;;;5.93;;
10661;SDS011;5379;51.034;7.006;2024-03-08T19:19:35;12.37;;;6.20;;
10661;SDS011;5379;51.034;7.006;2024-03-08T19:22:03;7.20;;;6.27;;
10661;SDS011;5379;51.034;7.006;2024-03-08T19:24:31;8.80;;;5.93;;
10661;SDS011;5379;51.034;7.006;2024-03-08T19:27:01;9.93;;;7.10;;
10661;SDS011;5379;51.034;7.006;2024-03-08T19:29:32;7.77;;;6.17;;
10661;SDS011;5379;51.034;7.006;2024-03-08T19:31:59;8.70;;;6.20;;
10661;SDS011;5379;51.034;7.006;2024-03-08T19:34:26;11.83;;;7.50;;
10661;SDS011;5379;51.034;7.006;2024-03-08T19:36:53;6.10;;;5.50;;
10661;SDS011;5379;51.034;7.006;2024-03-08T19:39:20;7.70;;;6.27;;
10661;SDS011;5379;51.034;7.006;2024-03-08T19:41:48;4.90;;;4.50;;
10661;SDS011;5379;51.034;7.006;2024-03-08T19:44:16;14.20;;;5.63;;
10661;SDS011;5379;51.034;7.006;2024-03-08T19:46:43;6.37;;;5.73;;
10661;SDS011;5379;51.034;7.006;2024-03-08T19:49:10;10.93;;;5.87;;
10661;SDS011;5379;51.034;7.006;2024-03-08T19:51:38;10.10;;;6.50;;
10661;SDS011;5379;51.034;7.006;2024-03-08T19:54:05;6.23;;;5.47;;
10661;SDS011;5379;51.034;7.006;2024-03-08T19:56:32;8.20;;;6.00;;
10661;SDS011;5379;51.034;7.006;2024-03-08T19:59:00;8.80;;;5.80;;
10661;SDS011;5379;51.034;7.006;2024-03-08T20:01:28;7.10;;;6.03;;
10661;SDS011;5379;51.034;7.006;2024-03-08T20:03:55;10.87;;;6.33;;
10661;SDS011;5379;51.034;7.006;2024-03-08T20:06:23;9.10;;;5.63;;
10661;SDS011;5379;51.034;7.006;2024-03-08T20:08:50;6.77;;;6.17;;
10661;SDS011;5379;51.034;7.006;2024-03-08T20:11:17;10.43;;;5.93;;
10661;SDS011;5379;51.034;7.006;2024-03-08T20:13:46;7.27;;;5.83;;
10661;SDS011;5379;51.034;7.006;2024-03-08T20:16:14;6.50;;;5.90;;
10661;SDS011;5379;51.034;7.006;2024-03-08T20:18:44;7.87;;;6.27;;
10661;SDS011;5379;51.034;7.006;2024-03-08T20:21:12;9.87;;;6.90;;
10661;SDS011;5379;51.034;7.006;2024-03-08T20:23:38;6.73;;;5.80;;
10661;SDS011;5379;51.034;7.006;2024-03-08T20:26:09;6.63;;;5.93;;
10661;SDS011;5379;51.034;7.006;2024-03-08T20:28:36;7.73;;;6.33;;
10661;SDS011;5379;51.034;7.006;2024-03-08T20:31:06;7.03;;;4.70;;
10661;SDS011;5379;51.034;7.006;2024-03-08T20:33:34;7.40;;;6.17;;
10661;SDS011;5379;51.034;7.006;2024-03-08T20:36:06;9.10;;;5.83;;
10661;SDS011;5379;51.034;7.006;2024-03-08T20:38:34;14.67;;;6.13;;
10661;SDS011;5379;51.034;7.006;2024-03-08T20:41:01;7.87;;;6.40;;
10661;SDS011;5379;51.034;7.006;2024-03-08T20:43:33;10.87;;;6.63;;
10661;SDS011;5379;51.034;7.006;2024-03-08T20:46:00;7.77;;;5.67;;
10661;SDS011;5379;51.034;7.006;2024-03-08T20:48:29;10.73;;;6.37;;
10661;SDS011;5379;51.034;7.006;2024-03-08T20:50:56;6.27;;;5.63;;
10661;SDS011;5379;51.034;7.006;2024-03-08T20:53:26;8.47;;;6.30;;